Terminal Aerodrome Forecast
Issued by NWS

Current Version | Previous Version | Graphics & Text | Print | Product List | Glossary Off
Versions: 1 2 3 4 5 6 7 8 9 10 11 12 13 14 15 16 17 18 19 20 21 22

000
FTUS41 KPBZ 080320 AAA
TAFMGW
TAF AMD
KMGW 080320Z 0803/0824 20012KT P6SM BKN025
      TEMPO 0803/0807 2SM SHRA BKN015
     FM080700 22006KT P6SM -SHRA OVC008
     FM080900 24008KT 3SM -SHRA BR OVC008
     FM081700 33004KT 6SM BR VCSH OVC015=

USA.gov is the U.S. government's official web portal to all federal, state and local government web resources and services.